Pagrindinis puslapis
METAR-TAF:

METAR-TAF

Oro uostai :

Tamperės oro uostas

Tamperė, Suomija

platuma: 61-25N, ilguma: 023-35E, Aukštis: 112 m

Dabartinis oras

Ataskaita buvo paskelbta 24 minutes, ne 06:20 UTC
Vėjas 10 kt iš Šiaurės/Šiaurės Vakarų, svyruoja nuo Vakarų/Šiaurės Vakarų ir Šiaurės
Temperatūra 2°C
Drėgmė 51%
Slėgis 1016 hPa
Matomumas 10 km arba daugiau
nėra debesų žemiau 1500 m ir nėra kamuolinių lietaus debesų

METAR: EFTP 100620Z AUTO 33010KT 290V360 CAVOK 02/M07 Q1016

Laikas: 09:44 (06:44 UTC)

Prognozė

Ataskaita buvo paskelbta 1 valandą ir 20 minutes, ne 05:24 UTC
Prognozė galioja nuo 10 metu 06 UTC su 11 metu 06 UTC
Vėjas 8 kt iš Vakarų/Šiaurės Vakarų
Matomumas 10 km arba daugiau
nėra debesų žemiau 1500 m ir nėra kamuolinių lietaus debesų
Laikinai
nuo 10 metu 11 UTC su 10 metu 17 UTC
Matomumas: 4000 m
Išsisklaidę debesys ne aukštis 3000 ft, Liūtiniai kamuoliniai debesys.
sniegas, lietus

TAF: EFTP 100524Z 1006/1106 30008KT CAVOK TEMPO 1011/1017 4000 -SHSNRA SCT030CB

Orai ataskaitas ir orų prognozės (METAR, TAF).

turimą stotys yra geltonos ir raudonos taškus žemėlapyje.

Perkelti pele per norėdami pamatyti stoties vardą.

Tada spustelėkite, norėdami matyti oro stebėjimo ir prognozės.

Norėdami pakeisti žemėlapį: spustelėkite ant žalios mygtukų su juodo kryžiaus žemyn,; žalią mygtuką su brūkšneliu, jei norite nutolinti; arba žalių rodyklių gretimoms žemėlapius.


METAR-TAF: